createdAt,value
2022-08-18T00:01:07.651Z,72.80
2022-08-18T00:03:56.989Z,72.80
2022-08-18T00:06:27.958Z,72.80
2022-08-18T00:08:57.945Z,72.80
2022-08-18T00:11:26.092Z,72.80
2022-08-18T00:13:54.245Z,72.80
2022-08-18T00:16:22.383Z,72.80
2022-08-18T00:18:51.910Z,72.80
2022-08-18T00:21:20.094Z,72.80
2022-08-18T00:23:48.220Z,72.90
2022-08-18T00:26:16.309Z,72.90
2022-08-18T00:28:44.414Z,72.80
2022-08-18T00:31:12.496Z,72.80
2022-08-18T00:33:40.605Z,72.90
2022-08-18T00:36:10.297Z,72.90
2022-08-18T00:38:38.440Z,72.90
2022-08-18T00:41:06.705Z,72.80
2022-08-18T00:43:39.911Z,72.80
2022-08-18T00:46:09.195Z,72.90
2022-08-18T00:48:37.544Z,72.90
2022-08-18T00:51:11.593Z,72.90
2022-08-18T00:53:44.092Z,72.90
2022-08-18T00:56:16.327Z,72.90
2022-08-18T00:58:47.003Z,72.90
2022-08-18T01:01:15.471Z,72.90
2022-08-18T01:03:43.710Z,72.80
2022-08-18T01:06:18.422Z,72.80
2022-08-18T01:08:46.517Z,72.90
2022-08-18T01:11:14.719Z,72.80
2022-08-18T01:13:42.943Z,72.90
2022-08-18T01:16:28.403Z,72.80
2022-08-18T01:19:14.038Z,72.80
2022-08-18T01:21:52.126Z,72.90
2022-08-18T01:24:43.337Z,72.80
2022-08-18T01:27:11.737Z,72.80
2022-08-18T01:29:43.600Z,72.80
2022-08-18T01:32:12.674Z,72.80
2022-08-18T01:34:40.779Z,72.80
2022-08-18T01:37:10.185Z,72.80
2022-08-18T01:41:11.007Z,72.90
2022-08-18T01:42:30.863Z,72.90
2022-08-18T01:44:58.970Z,72.80
2022-08-18T01:47:28.805Z,72.80
2022-08-18T01:50:01.212Z,72.80
2022-08-18T01:52:29.743Z,72.80
2022-08-18T01:54:59.231Z,72.80
2022-08-18T01:57:27.683Z,72.80
2022-08-18T01:59:55.816Z,72.80
2022-08-18T02:02:25.306Z,72.80
2022-08-18T02:04:53.714Z,72.80
2022-08-18T02:07:21.982Z,72.90
2022-08-18T02:10:00.311Z,72.90
2022-08-18T02:12:29.808Z,72.90
2022-08-18T02:14:58.038Z,72.90
2022-08-18T02:17:26.191Z,72.90
2022-08-18T02:19:54.318Z,72.90
2022-08-18T02:22:22.463Z,73.00
2022-08-18T02:24:50.646Z,73.00
2022-08-18T02:27:20.133Z,72.90
2022-08-18T02:29:48.264Z,73.00
2022-08-18T02:32:16.550Z,73.00
2022-08-18T02:34:47.449Z,72.90
2022-08-18T02:37:24.355Z,72.90
2022-08-18T02:39:52.513Z,72.90
2022-08-18T02:42:22.098Z,72.90
2022-08-18T02:44:50.215Z,72.90
2022-08-18T02:47:20.558Z,72.90
2022-08-18T02:49:48.794Z,72.90
2022-08-18T02:52:23.303Z,72.90
2022-08-18T02:54:52.784Z,72.90
2022-08-18T02:57:28.064Z,72.90
2022-08-18T02:59:56.271Z,73.00
2022-08-18T03:02:27.881Z,72.90
2022-08-18T03:04:56.041Z,73.00
2022-08-18T03:07:25.514Z,73.00
2022-08-18T03:09:53.646Z,73.00
2022-08-18T03:12:21.766Z,73.00
2022-08-18T03:14:51.334Z,72.90
2022-08-18T03:17:19.478Z,73.00
2022-08-18T03:19:48.041Z,73.00
2022-08-18T03:22:28.728Z,73.00
2022-08-18T03:24:57.919Z,73.00
2022-08-18T03:27:26.072Z,73.00
2022-08-18T03:29:55.696Z,73.00
2022-08-18T03:32:23.854Z,73.00
2022-08-18T03:34:52.112Z,73.00
2022-08-18T03:37:20.249Z,73.00
2022-08-18T03:39:51.922Z,73.00
2022-08-18T03:42:20.084Z,73.00
2022-08-18T03:44:48.195Z,73.00
2022-08-18T03:47:18.151Z,73.00
2022-08-18T03:49:46.298Z,73.00
2022-08-18T03:52:14.904Z,72.90
2022-08-18T03:54:43.281Z,73.00
2022-08-18T03:57:11.878Z,72.80
2022-08-18T03:59:43.822Z,72.90
2022-08-18T04:02:12.325Z,73.00
2022-08-18T04:04:42.937Z,72.90
2022-08-18T04:07:14.369Z,73.00
2022-08-18T04:09:43.125Z,73.00
2022-08-18T04:12:16.216Z,73.00
2022-08-18T04:14:48.151Z,73.00
2022-08-18T04:17:16.864Z,73.00
2022-08-18T04:19:47.001Z,73.00
2022-08-18T04:22:17.384Z,73.00
2022-08-18T04:24:46.814Z,73.00
2022-08-18T04:27:14.918Z,73.10
2022-08-18T04:29:43.029Z,73.10
2022-08-18T04:32:11.211Z,73.10
2022-08-18T04:34:39.375Z,73.10
2022-08-18T04:37:10.965Z,73.00
2022-08-18T04:39:39.177Z,73.00
2022-08-18T04:42:07.445Z,73.00
2022-08-18T04:44:37.942Z,73.00
2022-08-18T04:47:06.567Z,73.10
2022-08-18T04:49:34.688Z,73.10
2022-08-18T04:52:26.612Z,73.00
2022-08-18T04:55:10.258Z,73.10
2022-08-18T04:57:44.515Z,73.10
2022-08-18T05:00:13.859Z,73.10
2022-08-18T05:02:41.998Z,73.10
2022-08-18T05:05:11.244Z,73.00
2022-08-18T05:07:44.939Z,73.10
2022-08-18T05:10:17.757Z,73.10
2022-08-18T05:12:48.373Z,73.20
2022-08-18T05:15:17.835Z,73.20
2022-08-18T05:17:48.106Z,73.20
2022-08-18T05:20:19.130Z,73.30
2022-08-18T05:22:47.629Z,73.20
2022-08-18T05:25:17.521Z,73.30
2022-08-18T05:27:45.684Z,73.30
2022-08-18T05:30:15.862Z,73.30
2022-08-18T05:32:48.978Z,73.20
2022-08-18T05:35:23.368Z,73.30
2022-08-18T05:38:02.106Z,73.20
2022-08-18T05:40:31.950Z,73.20
2022-08-18T05:43:00.061Z,73.30
2022-08-18T05:45:28.549Z,73.30
2022-08-18T05:47:59.475Z,73.30
2022-08-18T05:50:41.423Z,73.30
2022-08-18T05:53:18.431Z,73.40
2022-08-18T05:56:12.339Z,73.30
2022-08-18T05:58:42.117Z,73.30
2022-08-18T06:01:14.723Z,73.30
2022-08-18T06:03:47.114Z,73.30
2022-08-18T06:06:16.502Z,73.30
2022-08-18T06:08:46.583Z,73.30
2022-08-18T06:11:17.325Z,73.50
2022-08-18T06:13:59.340Z,73.40
2022-08-18T06:16:34.181Z,73.40
2022-08-18T06:19:03.945Z,73.40
2022-08-18T06:21:39.325Z,73.40
2022-08-18T06:24:12.390Z,73.40
2022-08-18T06:26:45.511Z,73.40
2022-08-18T06:29:23.100Z,73.40
2022-08-18T06:31:54.702Z,73.40
2022-08-18T06:34:26.956Z,73.40
2022-08-18T06:36:56.615Z,73.30
2022-08-18T06:39:27.700Z,73.40
2022-08-18T06:41:57.250Z,73.40
2022-08-18T06:44:33.422Z,73.40
2022-08-18T06:47:05.340Z,73.50
2022-08-18T06:49:39.933Z,73.40
2022-08-18T06:52:22.215Z,73.50
2022-08-18T06:54:51.865Z,73.40
2022-08-18T06:57:30.597Z,73.50
2022-08-18T07:00:01.216Z,73.40
2022-08-18T07:02:48.287Z,73.50
2022-08-18T07:05:22.170Z,73.50
2022-08-18T07:08:05.526Z,73.50
2022-08-18T07:10:35.232Z,73.50
2022-08-18T07:13:27.309Z,73.50
2022-08-18T07:15:55.822Z,73.40
2022-08-18T07:18:26.332Z,73.60
2022-08-18T07:20:55.758Z,73.60
2022-08-18T07:23:29.656Z,73.50
2022-08-18T07:26:09.780Z,73.60
2022-08-18T07:28:41.870Z,73.50
2022-08-18T07:31:21.674Z,73.70
2022-08-18T07:33:58.004Z,73.50
2022-08-18T07:36:29.917Z,73.70
2022-08-18T07:39:00.182Z,73.70
2022-08-18T07:41:30.249Z,73.60
2022-08-18T07:44:13.578Z,73.60
2022-08-18T07:46:45.420Z,73.70
2022-08-18T07:49:15.678Z,73.60
2022-08-18T07:51:48.240Z,73.70
2022-08-18T07:54:48.913Z,73.70
2022-08-18T07:57:21.931Z,73.70
2022-08-18T07:59:54.080Z,73.70
2022-08-18T08:02:30.101Z,73.70
2022-08-18T08:05:03.320Z,73.70
2022-08-18T08:07:32.861Z,73.70
2022-08-18T08:10:23.973Z,73.80
2022-08-18T08:13:06.039Z,73.70
2022-08-18T08:15:43.472Z,73.80
2022-08-18T08:18:13.695Z,73.80
2022-08-18T08:20:45.062Z,73.80
2022-08-18T08:23:18.578Z,73.80
2022-08-18T08:25:58.509Z,73.90
2022-08-18T08:28:33.945Z,73.90
2022-08-18T08:31:35.300Z,73.80
2022-08-18T08:34:06.010Z,73.80
2022-08-18T08:36:35.921Z,73.70
2022-08-18T08:39:06.106Z,73.70
2022-08-18T08:41:35.716Z,73.80
2022-08-18T08:44:10.439Z,73.80
2022-08-18T08:46:43.405Z,73.80
2022-08-18T08:49:15.821Z,73.90
2022-08-18T08:51:46.531Z,73.80
2022-08-18T08:54:18.289Z,73.80
2022-08-18T08:56:47.868Z,73.90
2022-08-18T08:59:17.127Z,73.80
2022-08-18T09:02:27.066Z,73.90
2022-08-18T09:05:08.924Z,73.90
2022-08-18T09:08:11.908Z,74.00
2022-08-18T09:11:00.195Z,73.90
2022-08-18T09:14:09.072Z,74.00
2022-08-18T09:16:42.583Z,74.00
2022-08-18T09:19:32.004Z,74.00
2022-08-18T09:22:01.481Z,74.00
2022-08-18T09:24:31.707Z,74.00
2022-08-18T09:27:14.896Z,74.00
2022-08-18T09:29:51.309Z,74.00
2022-08-18T09:32:35.558Z,74.00
2022-08-18T09:35:20.222Z,74.00
2022-08-18T09:38:22.740Z,74.00
2022-08-18T09:41:12.604Z,74.00
2022-08-18T09:43:41.624Z,74.10
2022-08-18T09:46:12.400Z,74.00
2022-08-18T09:48:43.221Z,74.00
2022-08-18T09:51:39.955Z,74.00
2022-08-18T09:54:21.459Z,74.00
2022-08-18T09:57:24.499Z,74.10
2022-08-18T10:00:24.335Z,74.00
2022-08-18T10:03:31.254Z,74.10
2022-08-18T10:06:07.287Z,74.10
2022-08-18T10:09:27.184Z,74.10
2022-08-18T10:12:32.350Z,74.00
2022-08-18T10:15:33.222Z,74.00
2022-08-18T10:18:11.789Z,74.10
2022-08-18T10:20:44.736Z,74.00
2022-08-18T10:23:13.603Z,74.00
2022-08-18T10:25:46.551Z,74.10
2022-08-18T10:28:54.354Z,74.10
2022-08-18T10:31:24.164Z,74.00
2022-08-18T10:34:16.739Z,74.00
2022-08-18T10:36:48.113Z,74.10
2022-08-18T10:39:18.547Z,74.10
2022-08-18T10:42:04.123Z,74.10
2022-08-18T10:44:33.035Z,74.00
2022-08-18T10:47:02.506Z,74.00
2022-08-18T10:49:33.174Z,74.10
2022-08-18T10:52:20.819Z,74.10
2022-08-18T10:55:16.315Z,74.00
2022-08-18T10:58:13.792Z,74.00
2022-08-18T11:00:53.370Z,74.00
2022-08-18T11:03:52.170Z,74.00
2022-08-18T11:06:22.393Z,74.00
2022-08-18T11:11:53.146Z,73.90
2022-08-18T11:15:01.002Z,73.80
2022-08-18T11:17:57.590Z,73.90
2022-08-18T11:20:30.109Z,73.90
2022-08-18T11:23:00.462Z,73.80
2022-08-18T11:25:31.134Z,73.90
2022-08-18T11:27:59.502Z,73.90
2022-08-18T11:30:32.878Z,73.90
2022-08-18T11:33:08.047Z,73.90
2022-08-18T11:35:47.133Z,73.80
2022-08-18T11:38:23.095Z,73.80
2022-08-18T11:43:43.370Z,73.80
2022-08-18T11:46:27.931Z,73.80
2022-08-18T11:49:00.058Z,73.80
2022-08-18T11:51:31.470Z,73.90
2022-08-18T11:54:00.862Z,73.90
2022-08-18T11:56:30.838Z,73.90
2022-08-18T11:59:00.839Z,74.00
2022-08-18T12:01:41.831Z,74.00
2022-08-18T12:04:22.934Z,74.00
2022-08-18T12:07:04.410Z,74.00
2022-08-18T12:10:17.299Z,74.00
2022-08-18T12:12:28.210Z,74.00
2022-08-18T12:15:13.695Z,74.00
2022-08-18T12:17:52.506Z,74.10
2022-08-18T12:20:22.949Z,74.00
2022-08-18T12:22:51.687Z,73.90
2022-08-18T12:28:10.897Z,73.90
2022-08-18T12:30:42.279Z,73.80
2022-08-18T12:33:12.655Z,73.80
2022-08-18T12:35:44.691Z,73.70
2022-08-18T12:38:14.525Z,73.80
2022-08-18T12:40:44.255Z,73.70
2022-08-18T12:46:01.091Z,73.80
2022-08-18T12:48:29.259Z,73.70
2022-08-18T12:53:58.554Z,73.60
2022-08-18T12:56:30.404Z,73.40
2022-08-18T12:58:59.092Z,73.60
2022-08-18T13:01:28.060Z,73.50
2022-08-18T13:04:10.926Z,73.40
2022-08-18T13:06:59.318Z,73.40
2022-08-18T13:09:42.793Z,73.50
2022-08-18T13:12:18.507Z,73.40
2022-08-18T13:14:48.011Z,73.40
2022-08-18T13:17:29.440Z,73.30
2022-08-18T13:20:03.010Z,73.30
2022-08-18T13:22:33.326Z,73.30
2022-08-18T13:25:32.256Z,73.40
2022-08-18T13:28:01.614Z,73.40
2022-08-18T13:30:32.300Z,73.30
2022-08-18T13:33:05.384Z,73.30
2022-08-18T13:35:52.100Z,73.20
2022-08-18T13:38:26.040Z,73.30
2022-08-18T13:40:56.523Z,73.20
2022-08-18T13:43:26.304Z,73.20
2022-08-18T13:45:56.299Z,73.20
2022-08-18T13:48:25.695Z,73.20
2022-08-18T13:50:55.600Z,73.10
2022-08-18T13:53:26.415Z,73.10
2022-08-18T13:55:58.676Z,73.00
2022-08-18T13:58:28.382Z,73.00
2022-08-18T14:01:15.859Z,72.90
2022-08-18T14:03:47.909Z,73.00
2022-08-18T14:06:21.958Z,72.90
2022-08-18T14:08:53.219Z,72.90
2022-08-18T14:11:22.549Z,72.80
2022-08-18T14:13:54.059Z,72.80
2022-08-18T14:16:23.281Z,72.80
2022-08-18T14:19:12.582Z,72.80
2022-08-18T14:22:00.369Z,72.80
2022-08-18T14:24:48.711Z,72.80
2022-08-18T14:27:17.751Z,72.80
2022-08-18T14:29:48.666Z,72.70
2022-08-18T14:32:21.839Z,72.70
2022-08-18T14:35:00.243Z,72.70
2022-08-18T14:37:29.243Z,72.70
2022-08-18T14:39:58.834Z,72.70
2022-08-18T14:42:41.022Z,72.70
2022-08-18T14:45:26.382Z,72.60
2022-08-18T14:47:59.951Z,72.60
2022-08-18T14:50:28.073Z,72.60
2022-08-18T14:52:56.200Z,72.60
2022-08-18T14:55:25.747Z,72.60
2022-08-18T14:57:54.953Z,72.60
2022-08-18T15:00:27.855Z,72.60
2022-08-18T15:02:59.758Z,72.60
2022-08-18T15:05:33.936Z,72.50
2022-08-18T15:08:03.931Z,72.60
2022-08-18T15:10:33.589Z,72.50
2022-08-18T15:13:01.757Z,72.50
2022-08-18T15:15:50.552Z,72.50
2022-08-18T15:18:22.665Z,72.50
2022-08-18T15:21:10.290Z,72.50
2022-08-18T15:24:19.986Z,72.50
2022-08-18T15:26:51.767Z,72.50
2022-08-18T15:29:27.758Z,72.50
2022-08-18T15:32:05.575Z,72.50
2022-08-18T15:34:46.427Z,72.40
2022-08-18T15:37:19.934Z,72.40
2022-08-18T15:39:51.987Z,72.40
2022-08-18T15:42:25.603Z,72.40
2022-08-18T15:44:55.544Z,72.40
2022-08-18T15:47:25.425Z,72.40
2022-08-18T15:49:54.816Z,72.40
2022-08-18T15:52:26.203Z,72.40
2022-08-18T15:54:57.016Z,72.40
2022-08-18T15:57:38.893Z,72.40
2022-08-18T16:00:12.047Z,72.40
2022-08-18T16:02:40.940Z,72.30
2022-08-18T16:05:14.147Z,72.40
2022-08-18T16:07:53.558Z,72.30
2022-08-18T16:10:22.517Z,72.30
2022-08-18T16:12:52.261Z,72.30
2022-08-18T16:15:36.393Z,72.30
2022-08-18T16:18:05.528Z,72.30
2022-08-18T16:20:33.736Z,72.30
2022-08-18T16:23:01.891Z,72.30
2022-08-18T16:25:30.028Z,72.30
2022-08-18T16:28:01.225Z,72.30
2022-08-18T16:30:29.613Z,72.30
2022-08-18T16:33:02.821Z,72.30
2022-08-18T16:35:31.174Z,72.30
2022-08-18T16:38:03.461Z,72.30
2022-08-18T16:40:32.090Z,72.30
2022-08-18T16:43:01.691Z,72.20
2022-08-18T16:45:31.513Z,72.20
2022-08-18T16:47:59.617Z,72.20
2022-08-18T16:50:28.084Z,72.20
2022-08-18T16:53:02.310Z,72.20
2022-08-18T16:55:30.628Z,72.20
2022-08-18T16:58:16.302Z,72.20
2022-08-18T17:01:03.235Z,72.20
2022-08-18T17:03:48.885Z,72.20
2022-08-18T17:06:18.526Z,72.20
2022-08-18T17:08:46.844Z,72.20
2022-08-18T17:11:18.322Z,72.20
2022-08-18T17:13:46.841Z,72.20
2022-08-18T17:16:16.984Z,72.20
2022-08-18T17:18:45.076Z,72.10
2022-08-18T17:21:14.451Z,72.10
2022-08-18T17:23:43.064Z,72.10
2022-08-18T17:26:16.568Z,72.10
2022-08-18T17:28:54.279Z,72.10
2022-08-18T17:31:25.178Z,72.10
2022-08-18T17:33:53.378Z,72.10
2022-08-18T17:36:32.681Z,72.10
2022-08-18T17:39:02.769Z,72.10
2022-08-18T17:41:31.159Z,72.10
2022-08-18T17:44:02.054Z,72.10
2022-08-18T17:46:39.024Z,72.10
2022-08-18T17:49:12.376Z,72.10
2022-08-18T17:51:44.431Z,72.20
2022-08-18T17:54:24.482Z,72.10
2022-08-18T17:56:54.151Z,72.10
2022-08-18T17:59:45.934Z,72.10
2022-08-18T18:02:29.862Z,72.10
2022-08-18T18:04:58.763Z,72.20
2022-08-18T18:07:27.982Z,72.10
2022-08-18T18:09:58.193Z,72.20
2022-08-18T18:12:29.680Z,72.20
2022-08-18T18:14:58.516Z,72.20
2022-08-18T18:17:39.604Z,72.20
2022-08-18T18:20:16.975Z,72.20
2022-08-18T18:22:45.264Z,72.20
2022-08-18T18:25:13.848Z,72.20
2022-08-18T18:27:43.703Z,72.20
2022-08-18T18:30:28.016Z,72.20
2022-08-18T18:33:00.250Z,72.20
2022-08-18T18:35:29.028Z,72.20
2022-08-18T18:37:58.432Z,72.20
2022-08-18T18:40:30.554Z,72.20
2022-08-18T18:42:59.133Z,72.20
2022-08-18T18:45:31.597Z,72.30
2022-08-18T18:48:05.738Z,72.20
2022-08-18T18:50:53.073Z,72.20
2022-08-18T18:53:27.949Z,72.20
2022-08-18T18:56:04.130Z,72.20
2022-08-18T18:58:38.515Z,72.20
2022-08-18T19:01:09.471Z,72.30
2022-08-18T19:03:40.352Z,72.20
2022-08-18T19:06:21.634Z,72.30
2022-08-18T19:08:55.422Z,72.30
2022-08-18T19:11:27.146Z,72.30
2022-08-18T19:13:57.049Z,72.30
2022-08-18T19:16:28.426Z,72.30
2022-08-18T19:19:36.346Z,72.30
2022-08-18T19:22:05.573Z,72.30
2022-08-18T19:24:38.785Z,72.30
2022-08-18T19:27:07.034Z,72.30
2022-08-18T19:29:37.758Z,72.30
2022-08-18T19:32:08.207Z,72.50
2022-08-18T19:34:42.467Z,72.40
2022-08-18T19:37:27.331Z,72.60
2022-08-18T19:40:02.678Z,72.70
2022-08-18T19:42:35.422Z,72.70
2022-08-18T19:45:16.480Z,72.80
2022-08-18T19:47:48.449Z,72.80
2022-08-18T19:50:27.302Z,72.80
2022-08-18T19:53:21.585Z,72.90
2022-08-18T19:56:10.352Z,72.90
2022-08-18T19:59:15.089Z,72.90
2022-08-18T20:01:49.624Z,72.90
2022-08-18T20:04:25.749Z,72.90
2022-08-18T20:07:31.605Z,72.90
2022-08-18T20:10:22.773Z,72.90
2022-08-18T20:13:15.382Z,73.00
2022-08-18T20:16:00.133Z,73.00
2022-08-18T20:18:35.540Z,73.00
2022-08-18T20:21:41.613Z,73.10
2022-08-18T20:24:38.442Z,73.00
2022-08-18T20:27:36.108Z,73.00
2022-08-18T20:30:32.117Z,73.00
2022-08-18T20:33:21.225Z,73.10
2022-08-18T20:35:55.843Z,73.10
2022-08-18T20:38:35.565Z,73.10
2022-08-18T20:41:33.064Z,73.10
2022-08-18T20:44:46.086Z,73.10
2022-08-18T20:47:42.042Z,73.10
2022-08-18T20:50:37.208Z,73.10
2022-08-18T20:53:13.177Z,73.10
2022-08-18T20:55:46.915Z,73.10
2022-08-18T20:58:18.383Z,73.10
2022-08-18T21:00:48.758Z,73.10
2022-08-18T21:03:20.603Z,73.10
2022-08-18T21:05:49.812Z,73.20
2022-08-18T21:08:26.496Z,73.20
2022-08-18T21:10:57.147Z,73.20
2022-08-18T21:13:36.141Z,73.20
2022-08-18T21:16:05.120Z,73.20
2022-08-18T21:18:35.601Z,73.20
2022-08-18T21:21:06.229Z,73.20
2022-08-18T21:23:38.328Z,73.20
2022-08-18T21:26:08.059Z,73.20
2022-08-18T21:28:38.870Z,73.20
2022-08-18T21:31:29.130Z,73.20
2022-08-18T21:33:57.243Z,73.30
2022-08-18T21:36:32.104Z,73.30
2022-08-18T21:39:06.542Z,73.30
2022-08-18T21:41:34.984Z,73.30
2022-08-18T21:44:06.768Z,73.30
2022-08-18T21:46:35.008Z,73.30
2022-08-18T21:49:03.699Z,73.30
2022-08-18T21:51:40.484Z,73.30
2022-08-18T21:54:08.952Z,73.30
2022-08-18T21:56:37.477Z,73.30
2022-08-18T21:59:09.655Z,73.30
2022-08-18T22:01:38.134Z,73.30
2022-08-18T22:04:09.330Z,73.30
2022-08-18T22:06:40.348Z,73.30
2022-08-18T22:09:36.701Z,73.30
2022-08-18T22:12:39.397Z,73.30
2022-08-18T22:15:09.941Z,73.30
2022-08-18T22:17:44.624Z,73.30
2022-08-18T22:20:41.900Z,73.30
2022-08-18T22:23:43.989Z,73.30
2022-08-18T22:26:22.420Z,73.30
2022-08-18T22:28:55.144Z,73.30
2022-08-18T22:31:25.660Z,73.30
2022-08-18T22:33:54.334Z,73.30
2022-08-18T22:36:24.719Z,73.30
2022-08-18T22:38:53.412Z,73.30
2022-08-18T22:41:21.509Z,73.30
2022-08-18T22:43:54.866Z,73.30
2022-08-18T22:46:25.397Z,73.30
2022-08-18T22:48:54.219Z,73.30
2022-08-18T22:51:23.245Z,73.40
2022-08-18T22:53:51.418Z,73.30
2022-08-18T22:56:34.074Z,73.30
2022-08-18T22:59:13.745Z,73.30
2022-08-18T23:01:46.881Z,73.30
2022-08-18T23:04:16.413Z,73.30
2022-08-18T23:06:51.416Z,73.30
2022-08-18T23:09:21.215Z,73.30
2022-08-18T23:11:49.308Z,73.30
2022-08-18T23:14:17.450Z,73.40
2022-08-18T23:16:47.126Z,73.30
2022-08-18T23:19:15.972Z,73.20
2022-08-18T23:21:44.555Z,73.20
2022-08-18T23:24:13.813Z,73.20
2022-08-18T23:26:41.982Z,73.30
2022-08-18T23:29:11.791Z,73.20
2022-08-18T23:31:40.202Z,73.20
2022-08-18T23:34:10.059Z,73.20
2022-08-18T23:36:45.091Z,73.20
2022-08-18T23:39:13.955Z,73.20
2022-08-18T23:41:42.129Z,73.20
2022-08-18T23:44:11.416Z,73.30
2022-08-18T23:46:39.832Z,73.30
2022-08-18T23:49:10.986Z,73.20
2022-08-18T23:51:44.276Z,73.20
2022-08-18T23:54:14.390Z,73.20
2022-08-18T23:56:42.605Z,73.20
2022-08-18T23:59:11.146Z,73.20
